sensor_id;sensor_type;location;lat;lon;timestamp;temperature;humidity
74869;DHT22;63419;42.262;12.210;2022-12-16T00:37:14;12.00;99.90
74869;DHT22;63419;42.262;12.210;2022-12-16T00:39:42;12.00;99.90
74869;DHT22;63419;42.262;12.210;2022-12-16T00:42:10;12.00;99.90
74869;DHT22;63419;42.262;12.210;2022-12-16T00:44:37;11.90;99.90
74869;DHT22;63419;42.262;12.210;2022-12-16T00:47:05;12.00;99.90
74869;DHT22;63419;42.262;12.210;2022-12-16T00:49:32;12.00;99.90
74869;DHT22;63419;42.262;12.210;2022-12-16T00:51:59;11.90;99.90
74869;DHT22;63419;42.262;12.210;2022-12-16T00:54:27;11.90;99.90
74869;DHT22;63419;42.262;12.210;2022-12-16T00:56:55;11.80;99.90
74869;DHT22;63419;42.262;12.210;2022-12-16T00:59:25;11.90;99.90
74869;DHT22;63419;42.262;12.210;2022-12-16T01:01:52;11.90;99.90
74869;DHT22;63419;42.262;12.210;2022-12-16T01:04:22;11.80;99.90
74869;DHT22;63419;42.262;12.210;2022-12-16T01:06:53;11.70;99.90
74869;DHT22;63419;42.262;12.210;2022-12-16T01:09:23;11.60;99.90
74869;DHT22;63419;42.262;12.210;2022-12-16T01:11:50;11.70;99.90
74869;DHT22;63419;42.262;12.210;2022-12-16T01:14:18;11.80;99.90
74869;DHT22;63419;42.262;12.210;2022-12-16T01:16:45;11.80;99.90
74869;DHT22;63419;42.262;12.210;2022-12-16T01:19:13;11.80;99.90
74869;DHT22;63419;42.262;12.210;2022-12-16T01:21:40;11.80;99.90
74869;DHT22;63419;42.262;12.210;2022-12-16T01:24:09;11.80;99.90
74869;DHT22;63419;42.262;12.210;2022-12-16T01:26:38;11.90;99.90
74869;DHT22;63419;42.262;12.210;2022-12-16T01:29:05;11.80;99.90
74869;DHT22;63419;42.262;12.210;2022-12-16T01:31:34;11.80;99.90
74869;DHT22;63419;42.262;12.210;2022-12-16T01:34:03;11.80;99.90
74869;DHT22;63419;42.262;12.210;2022-12-16T01:36:33;11.80;99.90
74869;DHT22;63419;42.262;12.210;2022-12-16T01:39:00;11.90;99.90
74869;DHT22;63419;42.262;12.210;2022-12-16T01:41:27;12.00;99.90
74869;DHT22;63419;42.262;12.210;2022-12-16T01:44:15;11.90;99.90
74869;DHT22;63419;42.262;12.210;2022-12-16T01:46:57;11.90;99.90
74869;DHT22;63419;42.262;12.210;2022-12-16T01:49:42;11.80;99.90
74869;DHT22;63419;42.262;12.210;2022-12-16T01:52:20;11.70;99.90
74869;DHT22;63419;42.262;12.210;2022-12-16T01:55:05;11.70;99.90
74869;DHT22;63419;42.262;12.210;2022-12-16T01:57:50;11.60;99.90
74869;DHT22;63419;42.262;12.210;2022-12-16T02:00:22;11.60;99.90
74869;DHT22;63419;42.262;12.210;2022-12-16T02:02:50;11.50;99.90
74869;DHT22;63419;42.262;12.210;2022-12-16T02:05:32;11.30;99.90
74869;DHT22;63419;42.262;12.210;2022-12-16T02:08:15;11.20;99.90
74869;DHT22;63419;42.262;12.210;2022-12-16T02:29:05;10.60;99.90
74869;DHT22;63419;42.262;12.210;2022-12-16T02:31:57;10.50;99.90
74869;DHT22;63419;42.262;12.210;2022-12-16T02:46:11;11.00;99.90
74869;DHT22;63419;42.262;12.210;2022-12-16T02:48:39;11.10;99.90
74869;DHT22;63419;42.262;12.210;2022-12-16T02:51:06;11.20;99.90
74869;DHT22;63419;42.262;12.210;2022-12-16T02:53:35;11.20;99.90
74869;DHT22;63419;42.262;12.210;2022-12-16T02:59:08;11.30;99.90
74869;DHT22;63419;42.262;12.210;2022-12-16T03:01:46;11.40;99.90
74869;DHT22;63419;42.262;12.210;2022-12-16T03:04:50;11.30;99.90
74869;DHT22;63419;42.262;12.210;2022-12-16T03:07:25;11.20;99.90
74869;DHT22;63419;42.262;12.210;2022-12-16T03:09:55;11.10;99.90
74869;DHT22;63419;42.262;12.210;2022-12-16T03:12:24;11.10;99.90
74869;DHT22;63419;42.262;12.210;2022-12-16T03:14:54;11.00;99.90
74869;DHT22;63419;42.262;12.210;2022-12-16T03:17:23;10.90;99.90
74869;DHT22;63419;42.262;12.210;2022-12-16T03:20:02;11.00;99.90
74869;DHT22;63419;42.262;12.210;2022-12-16T03:22:37;10.90;99.90
74869;DHT22;63419;42.262;12.210;2022-12-16T03:25:08;10.80;99.90
74869;DHT22;63419;42.262;12.210;2022-12-16T03:27:49;10.80;99.90
74869;DHT22;63419;42.262;12.210;2022-12-16T03:30:31;10.70;99.90
74869;DHT22;63419;42.262;12.210;2022-12-16T03:33:20;10.80;99.90
74869;DHT22;63419;42.262;12.210;2022-12-16T03:36:01;10.80;99.90
74869;DHT22;63419;42.262;12.210;2022-12-16T03:38:35;10.80;99.90
74869;DHT22;63419;42.262;12.210;2022-12-16T03:41:06;10.80;99.90
74869;DHT22;63419;42.262;12.210;2022-12-16T03:43:34;10.80;99.90
74869;DHT22;63419;42.262;12.210;2022-12-16T03:46:05;10.80;99.90
74869;DHT22;63419;42.262;12.210;2022-12-16T03:48:34;10.70;99.90
74869;DHT22;63419;42.262;12.210;2022-12-16T03:51:02;10.70;99.90
74869;DHT22;63419;42.262;12.210;2022-12-16T03:53:30;10.80;99.90
74869;DHT22;63419;42.262;12.210;2022-12-16T03:55:57;10.80;99.90
74869;DHT22;63419;42.262;12.210;2022-12-16T03:58:24;10.80;99.90
74869;DHT22;63419;42.262;12.210;2022-12-16T04:00:52;11.00;99.90
74869;DHT22;63419;42.262;12.210;2022-12-16T04:03:19;11.00;99.90
74869;DHT22;63419;42.262;12.210;2022-12-16T04:05:48;11.10;99.90
74869;DHT22;63419;42.262;12.210;2022-12-16T04:08:15;11.10;99.90
74869;DHT22;63419;42.262;12.210;2022-12-16T04:10:42;11.20;99.90
74869;DHT22;63419;42.262;12.210;2022-12-16T04:13:28;11.20;99.90
74869;DHT22;63419;42.262;12.210;2022-12-16T04:16:15;11.10;99.90
74869;DHT22;63419;42.262;12.210;2022-12-16T04:19:02;11.10;99.90
74869;DHT22;63419;42.262;12.210;2022-12-16T04:21:49;11.10;99.90
74869;DHT22;63419;42.262;12.210;2022-12-16T04:24:35;11.00;99.90
74869;DHT22;63419;42.262;12.210;2022-12-16T04:27:02;10.90;99.90
74869;DHT22;63419;42.262;12.210;2022-12-16T04:29:48;11.00;99.90
74869;DHT22;63419;42.262;12.210;2022-12-16T04:32:34;10.90;99.90
74869;DHT22;63419;42.262;12.210;2022-12-16T04:35:20;10.90;99.90
74869;DHT22;63419;42.262;12.210;2022-12-16T04:38:06;10.90;99.90
74869;DHT22;63419;42.262;12.210;2022-12-16T04:40:51;10.90;99.90
74869;DHT22;63419;42.262;12.210;2022-12-16T04:43:37;11.10;99.90
74869;DHT22;63419;42.262;12.210;2022-12-16T04:46:23;11.30;99.90
74869;DHT22;63419;42.262;12.210;2022-12-16T04:49:11;11.20;99.90
74869;DHT22;63419;42.262;12.210;2022-12-16T04:51:59;11.30;99.90
74869;DHT22;63419;42.262;12.210;2022-12-16T04:54:47;11.40;99.90
74869;DHT22;63419;42.262;12.210;2022-12-16T04:57:33;11.50;99.90
74869;DHT22;63419;42.262;12.210;2022-12-16T05:00:23;11.50;99.90
74869;DHT22;63419;42.262;12.210;2022-12-16T05:03:10;11.50;99.90
74869;DHT22;63419;42.262;12.210;2022-12-16T05:05:59;11.50;99.90
74869;DHT22;63419;42.262;12.210;2022-12-16T05:08:46;11.50;99.90
74869;DHT22;63419;42.262;12.210;2022-12-16T05:11:33;11.50;99.90
74869;DHT22;63419;42.262;12.210;2022-12-16T05:14:20;11.70;99.90
74869;DHT22;63419;42.262;12.210;2022-12-16T05:17:07;11.80;99.90
74869;DHT22;63419;42.262;12.210;2022-12-16T05:20:00;11.90;99.90
74869;DHT22;63419;42.262;12.210;2022-12-16T05:22:46;12.00;99.90
74869;DHT22;63419;42.262;12.210;2022-12-16T05:25:31;12.10;99.90
74869;DHT22;63419;42.262;12.210;2022-12-16T05:28:17;12.10;99.90
74869;DHT22;63419;42.262;12.210;2022-12-16T05:31:14;12.20;99.90
74869;DHT22;63419;42.262;12.210;2022-12-16T05:34:00;12.20;99.90
74869;DHT22;63419;42.262;12.210;2022-12-16T05:36:50;12.10;99.90
74869;DHT22;63419;42.262;12.210;2022-12-16T05:39:36;12.20;99.90
74869;DHT22;63419;42.262;12.210;2022-12-16T05:42:22;12.30;99.90
74869;DHT22;63419;42.262;12.210;2022-12-16T05:45:08;12.30;99.90
74869;DHT22;63419;42.262;12.210;2022-12-16T05:47:54;12.40;99.90
74869;DHT22;63419;42.262;12.210;2022-12-16T05:50:39;12.30;99.90
74869;DHT22;63419;42.262;12.210;2022-12-16T05:53:25;12.30;99.90
74869;DHT22;63419;42.262;12.210;2022-12-16T05:56:11;12.30;99.90
74869;DHT22;63419;42.262;12.210;2022-12-16T05:58:57;12.30;99.90
74869;DHT22;63419;42.262;12.210;2022-12-16T06:01:42;12.30;99.90
74869;DHT22;63419;42.262;12.210;2022-12-16T06:04:29;12.30;99.90
74869;DHT22;63419;42.262;12.210;2022-12-16T06:07:14;12.30;99.90
74869;DHT22;63419;42.262;12.210;2022-12-16T06:10:00;12.30;99.90
74869;DHT22;63419;42.262;12.210;2022-12-16T06:12:46;12.30;99.90
74869;DHT22;63419;42.262;12.210;2022-12-16T06:15:32;12.30;99.90
74869;DHT22;63419;42.262;12.210;2022-12-16T06:18:19;12.30;99.90
74869;DHT22;63419;42.262;12.210;2022-12-16T06:21:04;12.30;99.90
74869;DHT22;63419;42.262;12.210;2022-12-16T06:23:50;12.30;99.90
74869;DHT22;63419;42.262;12.210;2022-12-16T06:26:36;12.30;99.90
74869;DHT22;63419;42.262;12.210;2022-12-16T06:29:22;12.30;99.90
74869;DHT22;63419;42.262;12.210;2022-12-16T06:32:07;12.30;99.90
74869;DHT22;63419;42.262;12.210;2022-12-16T06:34:53;12.30;99.90
74869;DHT22;63419;42.262;12.210;2022-12-16T06:37:39;12.30;99.90
74869;DHT22;63419;42.262;12.210;2022-12-16T06:43:29;12.30;99.90
74869;DHT22;63419;42.262;12.210;2022-12-16T06:46:15;12.30;99.90
74869;DHT22;63419;42.262;12.210;2022-12-16T06:49:01;12.30;99.90
74869;DHT22;63419;42.262;12.210;2022-12-16T06:51:46;12.30;99.90
74869;DHT22;63419;42.262;12.210;2022-12-16T06:54:34;12.30;99.90
74869;DHT22;63419;42.262;12.210;2022-12-16T06:57:20;12.30;99.90
74869;DHT22;63419;42.262;12.210;2022-12-16T07:00:06;12.30;99.90
74869;DHT22;63419;42.262;12.210;2022-12-16T07:03:00;12.40;99.90
74869;DHT22;63419;42.262;12.210;2022-12-16T07:05:54;12.40;99.90
74869;DHT22;63419;42.262;12.210;2022-12-16T07:08:41;12.40;99.90
74869;DHT22;63419;42.262;12.210;2022-12-16T07:12:12;12.40;99.90
74869;DHT22;63419;42.262;12.210;2022-12-16T07:14:59;12.40;99.90
74869;DHT22;63419;42.262;12.210;2022-12-16T07:17:47;12.40;99.90
74869;DHT22;63419;42.262;12.210;2022-12-16T07:20:45;12.40;99.90
74869;DHT22;63419;42.262;12.210;2022-12-16T07:23:38;12.40;99.90
74869;DHT22;63419;42.262;12.210;2022-12-16T07:26:26;12.40;99.90
74869;DHT22;63419;42.262;12.210;2022-12-16T07:29:18;12.40;99.90
74869;DHT22;63419;42.262;12.210;2022-12-16T07:32:08;12.30;99.90
74869;DHT22;63419;42.262;12.210;2022-12-16T07:35:00;12.30;99.90
74869;DHT22;63419;42.262;12.210;2022-12-16T07:37:48;12.30;99.90
74869;DHT22;63419;42.262;12.210;2022-12-16T07:40:40;12.30;99.90
74869;DHT22;63419;42.262;12.210;2022-12-16T07:43:33;12.30;99.90
74869;DHT22;63419;42.262;12.210;2022-12-16T07:46:24;12.30;99.90
74869;DHT22;63419;42.262;12.210;2022-12-16T07:52:55;12.40;99.90
74869;DHT22;63419;42.262;12.210;2022-12-16T07:55:46;12.40;99.90
74869;DHT22;63419;42.262;12.210;2022-12-16T07:58:36;12.40;99.90
74869;DHT22;63419;42.262;12.210;2022-12-16T08:01:26;12.40;99.90
74869;DHT22;63419;42.262;12.210;2022-12-16T08:04:18;12.40;99.90
74869;DHT22;63419;42.262;12.210;2022-12-16T08:07:08;12.40;99.90
74869;DHT22;63419;42.262;12.210;2022-12-16T08:10:00;12.40;99.90
74869;DHT22;63419;42.262;12.210;2022-12-16T08:13:01;12.40;99.90
74869;DHT22;63419;42.262;12.210;2022-12-16T08:15:59;12.50;99.90
74869;DHT22;63419;42.262;12.210;2022-12-16T08:18:50;12.40;99.90
74869;DHT22;63419;42.262;12.210;2022-12-16T08:21:38;12.40;99.90
74869;DHT22;63419;42.262;12.210;2022-12-16T08:24:33;12.40;99.90
74869;DHT22;63419;42.262;12.210;2022-12-16T08:27:34;12.40;99.90
74869;DHT22;63419;42.262;12.210;2022-12-16T08:30:28;12.40;99.90
74869;DHT22;63419;42.262;12.210;2022-12-16T08:33:24;12.40;99.90
74869;DHT22;63419;42.262;12.210;2022-12-16T08:36:56;12.50;99.90
74869;DHT22;63419;42.262;12.210;2022-12-16T08:40:12;12.50;99.90
74869;DHT22;63419;42.262;12.210;2022-12-16T08:43:04;12.60;99.90
74869;DHT22;63419;42.262;12.210;2022-12-16T10:04:55;12.80;99.90
74869;DHT22;63419;42.262;12.210;2022-12-16T10:08:13;12.50;99.90
74869;DHT22;63419;42.262;12.210;2022-12-16T10:12:01;12.30;99.90
74869;DHT22;63419;42.262;12.210;2022-12-16T10:18:38;12.60;99.90
74869;DHT22;63419;42.262;12.210;2022-12-16T10:22:10;12.80;99.90
74869;DHT22;63419;42.262;12.210;2022-12-16T10:25:17;13.00;99.90
74869;DHT22;63419;42.262;12.210;2022-12-16T10:28:18;13.00;99.90
74869;DHT22;63419;42.262;12.210;2022-12-16T10:31:18;13.10;99.90
74869;DHT22;63419;42.262;12.210;2022-12-16T10:34:18;13.10;99.90
74869;DHT22;63419;42.262;12.210;2022-12-16T10:37:43;13.10;99.90
74869;DHT22;63419;42.262;12.210;2022-12-16T10:40:34;13.20;99.90
74869;DHT22;63419;42.262;12.210;2022-12-16T10:43:43;13.20;99.90
74869;DHT22;63419;42.262;12.210;2022-12-16T10:46:36;13.20;99.90
74869;DHT22;63419;42.262;12.210;2022-12-16T10:49:29;13.10;99.90
74869;DHT22;63419;42.262;12.210;2022-12-16T10:52:29;13.10;99.90
74869;DHT22;63419;42.262;12.210;2022-12-16T10:55:36;13.00;99.90
74869;DHT22;63419;42.262;12.210;2022-12-16T10:58:52;13.00;99.90
74869;DHT22;63419;42.262;12.210;2022-12-16T11:02:20;12.90;99.90
74869;DHT22;63419;42.262;12.210;2022-12-16T11:05:31;12.90;99.90
74869;DHT22;63419;42.262;12.210;2022-12-16T11:12:38;12.80;99.90
74869;DHT22;63419;42.262;12.210;2022-12-16T11:15:30;12.70;99.90
74869;DHT22;63419;42.262;12.210;2022-12-16T11:18:32;12.60;99.90
74869;DHT22;63419;42.262;12.210;2022-12-16T11:21:32;12.70;99.90
74869;DHT22;63419;42.262;12.210;2022-12-16T11:24:23;12.70;99.90
74869;DHT22;63419;42.262;12.210;2022-12-16T11:27:29;12.80;99.90
74869;DHT22;63419;42.262;12.210;2022-12-16T11:30:19;12.80;99.90
74869;DHT22;63419;42.262;12.210;2022-12-16T11:33:13;12.80;99.90
74869;DHT22;63419;42.262;12.210;2022-12-16T11:36:30;13.00;99.90
74869;DHT22;63419;42.262;12.210;2022-12-16T11:39:28;13.00;99.90
74869;DHT22;63419;42.262;12.210;2022-12-16T11:42:27;13.00;99.90
74869;DHT22;63419;42.262;12.210;2022-12-16T11:45:22;13.10;99.90
74869;DHT22;63419;42.262;12.210;2022-12-16T11:48:35;13.10;99.90
74869;DHT22;63419;42.262;12.210;2022-12-16T11:51:31;13.00;99.90
74869;DHT22;63419;42.262;12.210;2022-12-16T12:03:02;13.00;99.90
74869;DHT22;63419;42.262;12.210;2022-12-16T12:06:29;13.10;99.90
74869;DHT22;63419;42.262;12.210;2022-12-16T12:09:21;13.20;99.90
74869;DHT22;63419;42.262;12.210;2022-12-16T12:15:36;13.40;99.90
74869;DHT22;63419;42.262;12.210;2022-12-16T12:19:12;13.40;99.90
74869;DHT22;63419;42.262;12.210;2022-12-16T12:22:35;13.30;99.90
74869;DHT22;63419;42.262;12.210;2022-12-16T12:25:52;13.30;99.90
74869;DHT22;63419;42.262;12.210;2022-12-16T12:29:33;13.60;99.90
74869;DHT22;63419;42.262;12.210;2022-12-16T12:39:32;13.50;99.90
74869;DHT22;63419;42.262;12.210;2022-12-16T12:42:44;13.40;99.90
74869;DHT22;63419;42.262;12.210;2022-12-16T12:46:06;13.50;99.90
74869;DHT22;63419;42.262;12.210;2022-12-16T12:49:07;13.30;99.90
74869;DHT22;63419;42.262;12.210;2022-12-16T12:58:34;13.20;99.90
74869;DHT22;63419;42.262;12.210;2022-12-16T13:01:27;13.10;99.90
74869;DHT22;63419;42.262;12.210;2022-12-16T13:04:22;13.00;99.90
74869;DHT22;63419;42.262;12.210;2022-12-16T13:07:11;13.00;99.90
74869;DHT22;63419;42.262;12.210;2022-12-16T13:17:22;13.00;99.90
74869;DHT22;63419;42.262;12.210;2022-12-16T13:20:34;13.00;99.90
74869;DHT22;63419;42.262;12.210;2022-12-16T13:23:29;13.00;99.90
74869;DHT22;63419;42.262;12.210;2022-12-16T13:26:33;13.00;99.90
74869;DHT22;63419;42.262;12.210;2022-12-16T13:30:20;13.00;99.90
74869;DHT22;63419;42.262;12.210;2022-12-16T13:33:26;13.00;99.90
74869;DHT22;63419;42.262;12.210;2022-12-16T13:37:04;13.00;99.90
74869;DHT22;63419;42.262;12.210;2022-12-16T13:47:00;13.00;99.90
74869;DHT22;63419;42.262;12.210;2022-12-16T13:50:39;13.10;99.90
74869;DHT22;63419;42.262;12.210;2022-12-16T13:53:51;13.10;99.90
74869;DHT22;63419;42.262;12.210;2022-12-16T13:56:47;13.10;99.90
74869;DHT22;63419;42.262;12.210;2022-12-16T13:59:45;13.00;99.90
74869;DHT22;63419;42.262;12.210;2022-12-16T14:02:47;13.00;99.90
74869;DHT22;63419;42.262;12.210;2022-12-16T14:05:56;13.00;99.90
74869;DHT22;63419;42.262;12.210;2022-12-16T14:08:52;13.10;99.90
74869;DHT22;63419;42.262;12.210;2022-12-16T14:16:36;13.10;99.90
74869;DHT22;63419;42.262;12.210;2022-12-16T14:23:44;13.20;99.90
74869;DHT22;63419;42.262;12.210;2022-12-16T14:26:44;13.00;99.90
74869;DHT22;63419;42.262;12.210;2022-12-16T14:29:37;13.00;99.90
74869;DHT22;63419;42.262;12.210;2022-12-16T14:32:34;13.10;99.90
74869;DHT22;63419;42.262;12.210;2022-12-16T14:39:51;13.00;99.90
74869;DHT22;63419;42.262;12.210;2022-12-16T14:42:39;13.00;99.90
74869;DHT22;63419;42.262;12.210;2022-12-16T14:45:33;12.90;99.90
74869;DHT22;63419;42.262;12.210;2022-12-16T14:51:28;13.00;99.90
74869;DHT22;63419;42.262;12.210;2022-12-16T14:57:12;13.00;99.90
74869;DHT22;63419;42.262;12.210;2022-12-16T15:06:43;13.00;99.90
74869;DHT22;63419;42.262;12.210;2022-12-16T15:09:38;12.80;99.90
74869;DHT22;63419;42.262;12.210;2022-12-16T15:12:31;12.80;99.90
74869;DHT22;63419;42.262;12.210;2022-12-16T15:15:37;12.80;99.90
74869;DHT22;63419;42.262;12.210;2022-12-16T15:18:37;12.80;99.90
74869;DHT22;63419;42.262;12.210;2022-12-16T15:21:28;12.80;99.90
74869;DHT22;63419;42.262;12.210;2022-12-16T15:24:22;12.70;99.90
74869;DHT22;63419;42.262;12.210;2022-12-16T15:33:35;12.60;99.90
74869;DHT22;63419;42.262;12.210;2022-12-16T15:42:27;12.30;99.90
74869;DHT22;63419;42.262;12.210;2022-12-16T15:45:25;12.30;99.90
74869;DHT22;63419;42.262;12.210;2022-12-16T15:48:26;12.50;99.90
74869;DHT22;63419;42.262;12.210;2022-12-16T15:51:28;12.30;99.90
74869;DHT22;63419;42.262;12.210;2022-12-16T15:54:27;12.20;99.90
74869;DHT22;63419;42.262;12.210;2022-12-16T15:57:54;12.20;99.90
74869;DHT22;63419;42.262;12.210;2022-12-16T16:00:56;12.20;99.90
74869;DHT22;63419;42.262;12.210;2022-12-16T16:03:51;12.20;99.90
74869;DHT22;63419;42.262;12.210;2022-12-16T16:06:50;12.10;99.90
74869;DHT22;63419;42.262;12.210;2022-12-16T16:09:38;12.10;99.90
74869;DHT22;63419;42.262;12.210;2022-12-16T16:12:24;12.10;99.90
74869;DHT22;63419;42.262;12.210;2022-12-16T16:15:12;12.10;99.90
74869;DHT22;63419;42.262;12.210;2022-12-16T16:18:04;12.00;99.90
74869;DHT22;63419;42.262;12.210;2022-12-16T16:21:01;12.00;99.90
74869;DHT22;63419;42.262;12.210;2022-12-16T16:23:47;11.90;99.90
74869;DHT22;63419;42.262;12.210;2022-12-16T16:26:33;11.80;99.90
74869;DHT22;63419;42.262;12.210;2022-12-16T16:29:46;11.80;99.90
74869;DHT22;63419;42.262;12.210;2022-12-16T16:32:32;11.80;99.90
74869;DHT22;63419;42.262;12.210;2022-12-16T16:35:18;11.80;99.90
74869;DHT22;63419;42.262;12.210;2022-12-16T16:38:04;11.70;99.90
74869;DHT22;63419;42.262;12.210;2022-12-16T16:40:49;11.70;99.90
74869;DHT22;63419;42.262;12.210;2022-12-16T16:43:35;11.60;99.90
74869;DHT22;63419;42.262;12.210;2022-12-16T16:46:50;11.50;99.90
74869;DHT22;63419;42.262;12.210;2022-12-16T16:49:40;11.40;99.90
74869;DHT22;63419;42.262;12.210;2022-12-16T16:52:28;11.40;99.90
74869;DHT22;63419;42.262;12.210;2022-12-16T16:55:16;11.40;99.90
74869;DHT22;63419;42.262;12.210;2022-12-16T16:58:09;11.30;99.90
74869;DHT22;63419;42.262;12.210;2022-12-16T17:00:58;11.10;99.90
74869;DHT22;63419;42.262;12.210;2022-12-16T17:03:44;11.20;99.90
74869;DHT22;63419;42.262;12.210;2022-12-16T17:06:31;11.20;99.90
74869;DHT22;63419;42.262;12.210;2022-12-16T17:09:17;11.10;99.90
74869;DHT22;63419;42.262;12.210;2022-12-16T17:12:29;11.00;99.90
74869;DHT22;63419;42.262;12.210;2022-12-16T17:15:18;11.00;99.90
74869;DHT22;63419;42.262;12.210;2022-12-16T17:18:08;11.00;99.90
74869;DHT22;63419;42.262;12.210;2022-12-16T17:20:54;10.90;99.90
74869;DHT22;63419;42.262;12.210;2022-12-16T17:23:40;10.90;99.90
74869;DHT22;63419;42.262;12.210;2022-12-16T17:26:26;11.00;99.90
74869;DHT22;63419;42.262;12.210;2022-12-16T17:29:22;10.80;99.90
74869;DHT22;63419;42.262;12.210;2022-12-16T17:32:09;10.80;99.90
74869;DHT22;63419;42.262;12.210;2022-12-16T17:34:56;10.80;99.90
74869;DHT22;63419;42.262;12.210;2022-12-16T17:37:42;10.80;99.90
74869;DHT22;63419;42.262;12.210;2022-12-16T17:40:28;10.80;99.90
74869;DHT22;63419;42.262;12.210;2022-12-16T17:43:14;10.90;99.90
74869;DHT22;63419;42.262;12.210;2022-12-16T17:46:01;10.90;99.90
74869;DHT22;63419;42.262;12.210;2022-12-16T17:48:53;10.90;99.90
74869;DHT22;63419;42.262;12.210;2022-12-16T17:51:42;10.90;99.90
74869;DHT22;63419;42.262;12.210;2022-12-16T17:54:28;11.00;99.90
74869;DHT22;63419;42.262;12.210;2022-12-16T17:57:14;11.10;99.90
74869;DHT22;63419;42.262;12.210;2022-12-16T18:00:00;11.10;99.90
74869;DHT22;63419;42.262;12.210;2022-12-16T18:02:46;11.00;99.90
74869;DHT22;63419;42.262;12.210;2022-12-16T18:05:38;11.00;99.90
74869;DHT22;63419;42.262;12.210;2022-12-16T18:08:24;11.10;99.90
74869;DHT22;63419;42.262;12.210;2022-12-16T18:11:10;11.00;99.90
74869;DHT22;63419;42.262;12.210;2022-12-16T18:14:01;11.00;99.90
74869;DHT22;63419;42.262;12.210;2022-12-16T18:16:47;11.10;99.90
74869;DHT22;63419;42.262;12.210;2022-12-16T18:19:33;11.10;99.90
74869;DHT22;63419;42.262;12.210;2022-12-16T18:22:19;11.10;99.90
74869;DHT22;63419;42.262;12.210;2022-12-16T18:25:09;11.10;99.90
74869;DHT22;63419;42.262;12.210;2022-12-16T18:27:55;11.10;99.90
74869;DHT22;63419;42.262;12.210;2022-12-16T18:30:41;11.00;99.90
74869;DHT22;63419;42.262;12.210;2022-12-16T18:33:27;11.00;99.90
74869;DHT22;63419;42.262;12.210;2022-12-16T18:36:13;11.10;99.90
74869;DHT22;63419;42.262;12.210;2022-12-16T18:39:01;11.10;99.90
74869;DHT22;63419;42.262;12.210;2022-12-16T18:41:48;11.10;99.90
74869;DHT22;63419;42.262;12.210;2022-12-16T18:44:33;11.10;99.90
74869;DHT22;63419;42.262;12.210;2022-12-16T18:47:26;11.20;99.90
74869;DHT22;63419;42.262;12.210;2022-12-16T18:50:14;11.20;99.90
74869;DHT22;63419;42.262;12.210;2022-12-16T18:53:04;11.10;99.90
74869;DHT22;63419;42.262;12.210;2022-12-16T18:56:02;11.10;99.90
74869;DHT22;63419;42.262;12.210;2022-12-16T18:58:50;11.00;99.90
74869;DHT22;63419;42.262;12.210;2022-12-16T19:01:36;10.90;99.90
74869;DHT22;63419;42.262;12.210;2022-12-16T19:04:25;10.90;99.90
74869;DHT22;63419;42.262;12.210;2022-12-16T19:07:11;10.90;99.90
74869;DHT22;63419;42.262;12.210;2022-12-16T19:09:59;10.90;99.90
74869;DHT22;63419;42.262;12.210;2022-12-16T19:12:46;10.90;99.90
74869;DHT22;63419;42.262;12.210;2022-12-16T19:15:32;10.80;99.90
74869;DHT22;63419;42.262;12.210;2022-12-16T19:18:18;10.70;99.90
74869;DHT22;63419;42.262;12.210;2022-12-16T19:21:04;10.60;99.90
74869;DHT22;63419;42.262;12.210;2022-12-16T19:23:51;10.60;99.90
74869;DHT22;63419;42.262;12.210;2022-12-16T19:26:37;10.60;99.90
74869;DHT22;63419;42.262;12.210;2022-12-16T19:29:24;10.70;99.90
74869;DHT22;63419;42.262;12.210;2022-12-16T19:32:10;10.60;99.90
74869;DHT22;63419;42.262;12.210;2022-12-16T19:34:56;10.60;99.90
74869;DHT22;63419;42.262;12.210;2022-12-16T19:37:42;10.60;99.90
74869;DHT22;63419;42.262;12.210;2022-12-16T19:40:28;10.50;99.90
74869;DHT22;63419;42.262;12.210;2022-12-16T19:43:15;10.60;99.90
74869;DHT22;63419;42.262;12.210;2022-12-16T19:46:04;10.60;99.90
74869;DHT22;63419;42.262;12.210;2022-12-16T19:48:50;10.50;99.90
74869;DHT22;63419;42.262;12.210;2022-12-16T19:51:36;10.40;99.90
74869;DHT22;63419;42.262;12.210;2022-12-16T19:54:23;10.40;99.90
74869;DHT22;63419;42.262;12.210;2022-12-16T19:57:09;10.30;99.90
74869;DHT22;63419;42.262;12.210;2022-12-16T19:59:55;10.20;99.90
74869;DHT22;63419;42.262;12.210;2022-12-16T20:02:42;10.10;99.90
74869;DHT22;63419;42.262;12.210;2022-12-16T20:05:28;10.10;99.90
74869;DHT22;63419;42.262;12.210;2022-12-16T20:08:14;10.10;99.90
74869;DHT22;63419;42.262;12.210;2022-12-16T20:11:07;10.10;99.90
74869;DHT22;63419;42.262;12.210;2022-12-16T20:13:54;10.10;99.90
74869;DHT22;63419;42.262;12.210;2022-12-16T20:16:42;10.10;99.90
74869;DHT22;63419;42.262;12.210;2022-12-16T20:19:28;10.10;99.90
74869;DHT22;63419;42.262;12.210;2022-12-16T20:22:17;10.20;99.90
74869;DHT22;63419;42.262;12.210;2022-12-16T20:25:03;10.20;99.90
74869;DHT22;63419;42.262;12.210;2022-12-16T20:27:50;10.10;99.90
74869;DHT22;63419;42.262;12.210;2022-12-16T20:30:37;10.10;99.90
74869;DHT22;63419;42.262;12.210;2022-12-16T20:33:25;10.00;99.90
74869;DHT22;63419;42.262;12.210;2022-12-16T20:36:11;9.80;99.90
74869;DHT22;63419;42.262;12.210;2022-12-16T20:38:57;9.80;99.90
74869;DHT22;63419;42.262;12.210;2022-12-16T20:41:44;9.90;99.90
74869;DHT22;63419;42.262;12.210;2022-12-16T20:44:30;10.00;99.90
74869;DHT22;63419;42.262;12.210;2022-12-16T20:47:27;10.00;99.90
74869;DHT22;63419;42.262;12.210;2022-12-16T20:50:13;10.00;99.90
74869;DHT22;63419;42.262;12.210;2022-12-16T20:52:59;9.90;99.90
74869;DHT22;63419;42.262;12.210;2022-12-16T20:55:45;10.00;99.90
74869;DHT22;63419;42.262;12.210;2022-12-16T20:58:31;10.00;99.90
74869;DHT22;63419;42.262;12.210;2022-12-16T21:01:22;10.00;99.90
74869;DHT22;63419;42.262;12.210;2022-12-16T21:04:27;10.10;99.90
74869;DHT22;63419;42.262;12.210;2022-12-16T21:07:14;10.10;99.90
74869;DHT22;63419;42.262;12.210;2022-12-16T21:10:00;10.10;99.90
74869;DHT22;63419;42.262;12.210;2022-12-16T21:12:46;10.10;99.90
74869;DHT22;63419;42.262;12.210;2022-12-16T21:15:32;10.00;99.90
74869;DHT22;63419;42.262;12.210;2022-12-16T21:18:23;10.00;99.90
74869;DHT22;63419;42.262;12.210;2022-12-16T21:21:10;10.00;99.90
74869;DHT22;63419;42.262;12.210;2022-12-16T21:23:56;10.00;99.90
74869;DHT22;63419;42.262;12.210;2022-12-16T21:26:42;10.10;99.90
74869;DHT22;63419;42.262;12.210;2022-12-16T21:29:29;10.20;99.90
74869;DHT22;63419;42.262;12.210;2022-12-16T21:32:14;10.20;99.90